Time;durP1;ratioP1;P1;durP2;ratioP2;P2;SDS_P1;SDS_P2;PMS_P1;PMS_P2;Temp;Humidity;BMP_temperature;BMP_pressure;BME280_temperature;BME280_humidity;BME280_pressure;Samples;Min_cycle;Max_cycle;Signal;HPM_P1;HPM_P2
2021/06/10 00:03:59;;;;;;;7.10;3.10;;;;;;;14.36;69.62;100855.98;3557048;80;26323;-90
2021/06/10 00:09:00;;;;;;;5.77;3.27;;;;;;;14.34;69.50;100854.20;3561650;80;99061;-89
2021/06/10 00:14:05;;;;;;;6.10;3.20;;;;;;;14.28;69.46;100856.55;3490030;83;32609;-90
2021/06/10 00:19:07;;;;;;;7.28;3.37;;;;;;;14.23;70.07;100856.92;3541332;81;98617;-89
2021/06/10 00:24:08;;;;;;;6.90;3.37;;;;;;;14.15;70.08;100853.11;3525722;82;33052;-89
2021/06/10 00:29:12;;;;;;;6.72;3.62;;;;;;;14.07;70.94;100851.52;3500292;82;99566;-90
2021/06/10 00:34:18;;;;;;;6.37;3.42;;;;;;;14.00;70.97;100853.66;3511928;82;26203;-90
2021/06/10 00:39:19;;;;;;;8.28;3.55;;;;;;;13.94;71.44;100853.83;3510283;81;98631;-91
2021/06/10 00:44:21;;;;;;;8.27;3.70;;;;;;;13.88;71.76;100858.16;3533370;80;32159;-90
2021/06/10 00:49:22;;;;;;;6.65;3.75;;;;;;;13.82;71.81;100851.41;3483963;82;98808;-90
2021/06/10 00:54:23;;;;;;;6.93;3.40;;;;;;;13.78;71.87;100851.98;3508953;82;32052;-89
2021/06/10 00:59:24;;;;;;;9.20;3.90;;;;;;;13.73;72.09;100846.81;3536885;79;98586;-89
2021/06/10 01:04:27;;;;;;;6.53;3.87;;;;;;;13.65;72.79;100849.36;3538659;80;27146;-89
2021/06/10 01:09:54;;;;;;;7.62;3.85;;;;;;;13.61;72.83;100857.41;3552486;79;98937;-90
2021/06/10 01:15:14;;;;;;;6.60;4.22;;;;;;;13.57;72.80;100857.39;3537984;81;25899;-91
2021/06/10 01:20:21;;;;;;;10.50;4.60;;;;;;;13.54;72.80;100856.00;3546183;80;98644;-90
2021/06/10 01:25:33;;;;;;;8.63;5.30;;;;;;;13.51;72.55;100854.02;3544888;81;35468;-89
2021/06/10 01:30:48;;;;;;;9.10;4.97;;;;;;;13.48;72.78;100845.09;3516206;80;98643;-90
2021/06/10 01:36:02;;;;;;;9.25;5.00;;;;;;;13.44;73.04;100840.13;3535299;81;34926;-89
2021/06/10 01:41:07;;;;;;;8.93;5.80;;;;;;;13.41;73.60;100851.98;3555598;81;99294;-90
2021/06/10 01:46:25;;;;;;;10.30;5.42;;;;;;;13.36;73.68;100845.42;3549749;81;36306;-90
2021/06/10 01:51:32;;;;;;;10.35;5.12;;;;;;;13.20;73.77;100825.58;3574684;79;99278;-90
2021/06/10 01:56:35;;;;;;;9.58;4.92;;;;;;;13.30;73.72;100844.98;3469031;81;26638;-89
2021/06/10 02:01:48;;;;;;;10.50;5.35;;;;;;;13.30;74.04;100835.91;3518733;82;98552;-90
2021/06/10 02:06:54;;;;;;;9.37;4.80;;;;;;;13.28;74.75;100829.95;3491428;82;32060;-89
2021/06/10 02:11:56;;;;;;;8.53;4.63;;;;;;;13.24;74.86;100831.92;3518258;81;98926;-89
2021/06/10 02:17:01;;;;;;;10.78;4.90;;;;;;;13.20;74.75;100826.34;3531632;80;34994;-89
2021/06/10 02:22:03;;;;;;;7.72;4.12;;;;;;;13.16;74.67;100828.31;3546363;80;98947;-89
2021/06/10 02:27:05;;;;;;;10.30;4.90;;;;;;;13.15;74.29;100830.88;3545722;81;34877;-90
2021/06/10 02:32:07;;;;;;;8.50;4.83;;;;;;;13.14;74.25;100829.87;3553534;81;98930;-90
2021/06/10 02:37:13;;;;;;;7.47;4.75;;;;;;;13.06;75.31;100829.61;3566197;80;34327;-89
2021/06/10 02:42:16;;;;;;;9.10;5.00;;;;;;;13.06;75.31;100829.61;3562434;79;98408;-90
2021/06/10 02:47:19;;;;;;;6.95;4.30;;;;;;;13.04;74.86;100816.16;3577220;80;33719;-89
2021/06/10 02:52:21;;;;;;;9.00;4.70;;;;;;;13.05;75.49;100815.59;3562792;81;98428;-89
2021/06/10 02:57:24;;;;;;;8.65;4.10;;;;;;;13.06;75.52;100822.70;3569524;80;35388;-89
2021/06/10 03:02:27;;;;;;;7.53;4.65;;;;;;;12.99;75.44;100812.98;3568975;80;98859;-90
2021/06/10 03:07:29;;;;;;;9.28;4.35;;;;;;;13.02;76.04;100808.86;3564143;80;34877;-89
2021/06/10 03:12:30;;;;;;;9.37;4.30;;;;;;;13.03;75.80;100815.20;3565060;81;98630;-89
2021/06/10 03:17:32;;;;;;;6.17;3.75;;;;;;;13.06;76.34;100811.64;3562345;81;34138;-89
2021/06/10 03:22:35;;;;;;;7.87;4.30;;;;;;;13.07;76.17;100822.90;3565266;81;98537;-89
2021/06/10 03:27:40;;;;;;;8.40;4.50;;;;;;;12.96;75.89;100800.73;3568311;81;35003;-89
2021/06/10 03:32:41;;;;;;;8.00;4.30;;;;;;;13.14;76.64;100806.39;3570765;81;34993;-89
2021/06/10 03:37:44;;;;;;;8.45;5.15;;;;;;;13.07;76.68;100796.64;3540337;79;98510;-88
2021/06/10 03:42:47;;;;;;;9.25;5.78;;;;;;;13.24;76.59;100821.64;3569709;81;35554;-87
2021/06/10 03:47:48;;;;;;;9.08;5.37;;;;;;;13.32;76.15;100821.11;3562995;81;98872;-90
2021/06/10 03:52:49;;;;;;;10.00;5.80;;;;;;;13.41;76.70;100823.72;3565459;81;33086;-89
2021/06/10 03:57:50;;;;;;;9.37;5.43;;;;;;;13.52;77.17;100825.95;3472656;83;98875;-89
2021/06/10 04:02:51;;;;;;;8.53;5.57;;;;;;;13.64;76.76;100825.65;3439737;84;31045;-89
2021/06/10 04:07:55;;;;;;;8.90;5.63;;;;;;;13.79;77.14;100841.11;3490174;81;99062;-89
2021/06/10 04:12:56;;;;;;;10.88;5.17;;;;;;;13.94;77.05;100850.26;3483566;83;35060;-90
2021/06/10 04:17:58;;;;;;;16.05;6.67;;;;;;;14.15;78.00;100857.27;3448657;81;99224;-89
2021/06/10 04:22:59;;;;;;;13.10;6.53;;;;;;;14.37;78.38;100868.05;3478847;82;32024;-89
2021/06/10 04:28:00;;;;;;;12.93;6.25;;;;;;;14.61;78.31;100881.16;3491314;81;98628;-91
2021/06/10 04:33:05;;;;;;;10.17;5.43;;;;;;;14.84;77.70;100893.27;3484081;83;31094;-90
2021/06/10 04:38:14;;;;;;;10.80;5.85;;;;;;;15.03;76.75;100895.65;3483409;81;99160;-90
2021/06/10 04:43:23;;;;;;;11.28;5.58;;;;;;;15.18;76.30;100900.82;3505327;81;34604;-91
2021/06/10 04:48:38;;;;;;;12.05;5.53;;;;;;;15.34;75.95;100914.30;3484992;80;98852;-91
2021/06/10 04:53:42;;;;;;;12.47;7.25;;;;;;;15.46;75.84;100938.28;3507240;81;35560;-90
2021/06/10 04:58:42;;;;;;;11.60;8.18;;;;;;;15.56;75.43;100941.64;3504439;81;99241;-87
2021/06/10 05:03:43;;;;;;;12.63;9.08;;;;;;;15.62;74.94;100933.11;3511687;82;34970;-85
2021/06/10 05:08:44;;;;;;;13.28;8.90;;;;;;;15.70;75.17;100929.73;3501441;81;99319;-87
2021/06/10 05:13:44;;;;;;;14.78;9.88;;;;;;;15.74;75.06;100918.81;3526873;81;33439;-85
2021/06/10 05:18:46;;;;;;;13.22;9.10;;;;;;;15.71;76.47;100906.34;3501404;81;98957;-85
2021/06/10 05:23:47;;;;;;;13.90;9.93;;;;;;;15.68;76.22;100907.92;3510565;81;33100;-85
2021/06/10 05:28:51;;;;;;;16.90;11.40;;;;;;;15.69;77.01;100922.60;3504222;81;99514;-83
2021/06/10 05:33:52;;;;;;;17.00;12.33;;;;;;;15.73;77.23;100915.04;3509534;82;35555;-83
2021/06/10 05:38:52;;;;;;;21.93;14.27;;;;;;;15.72;77.86;100898.20;3504524;81;99481;-83
2021/06/10 05:43:53;;;;;;;18.97;12.13;;;;;;;15.72;77.68;100878.77;3509428;82;27783;-84
2021/06/10 05:48:54;;;;;;;16.20;11.77;;;;;;;15.80;77.53;100876.97;3500009;81;99161;-83
2021/06/10 05:53:55;;;;;;;23.27;14.47;;;;;;;15.85;77.30;100883.50;3503363;82;27214;-83
2021/06/10 05:58:56;;;;;;;23.97;15.33;;;;;;;15.86;77.42;100898.95;3513837;81;99187;-83
2021/06/10 06:03:57;;;;;;;26.13;15.40;;;;;;;15.92;77.51;100892.41;3515178;82;33222;-83
2021/06/10 06:08:58;;;;;;;27.07;16.50;;;;;;;15.99;77.42;100900.70;3503386;81;99214;-84
2021/06/10 06:14:12;;;;;;;33.08;20.60;;;;;;;16.08;77.58;100900.45;3511568;82;32584;-84
2021/06/10 06:19:12;;;;;;;29.25;16.60;;;;;;;16.22;77.76;100907.36;3500879;81;99224;-85
2021/06/10 06:24:14;;;;;;;25.40;14.90;;;;;;;16.35;77.83;100909.09;3504461;82;27455;-84
2021/06/10 06:29:15;;;;;;;25.82;14.15;;;;;;;16.46;77.27;100912.64;3493615;80;99267;-84
2021/06/10 06:34:15;;;;;;;20.35;13.08;;;;;;;16.67;77.04;100908.36;3511300;82;32554;-83
2021/06/10 06:39:17;;;;;;;19.60;12.68;;;;;;;16.86;76.56;100904.45;3496674;78;99191;-84
2021/06/10 06:44:18;;;;;;;22.98;13.70;;;;;;;17.00;76.11;100910.52;3496458;82;29699;-85
2021/06/10 06:49:18;;;;;;;18.95;12.68;;;;;;;17.09;75.87;100910.83;3479396;80;99636;-83
2021/06/10 06:54:19;;;;;;;15.90;11.40;;;;;;;17.15;75.57;100914.75;3514240;81;27764;-83
2021/06/10 06:59:20;;;;;;;17.80;12.33;;;;;;;17.18;75.37;100916.14;3501474;81;99197;-83
2021/06/10 07:04:21;;;;;;;16.97;12.05;;;;;;;17.19;75.70;100926.65;3507867;82;25982;-83
2021/06/10 07:09:22;;;;;;;14.58;10.68;;;;;;;17.21;76.19;100925.63;3505040;79;99173;-83
2021/06/10 07:14:23;;;;;;;15.48;9.83;;;;;;;17.25;76.58;100910.51;3502079;82;26509;-81
2021/06/10 07:19:24;;;;;;;14.50;10.80;;;;;;;17.44;76.59;100909.96;3493811;79;99217;-83
2021/06/10 07:24:24;;;;;;;11.67;8.10;;;;;;;17.66;76.78;100907.16;3430529;84;25890;-81
2021/06/10 07:29:25;;;;;;;11.90;7.43;;;;;;;18.05;76.73;100911.70;3430652;83;99449;-81
2021/06/10 07:34:27;;;;;;;12.47;8.00;;;;;;;18.37;75.64;100916.94;3429720;82;27100;-82
2021/06/10 07:39:28;;;;;;;16.43;8.90;;;;;;;18.67;75.06;100914.92;3431798;83;99027;-82
2021/06/10 07:44:29;;;;;;;14.27;8.57;;;;;;;18.86;74.48;100917.64;3440440;84;26139;-82
2021/06/10 07:49:32;;;;;;;11.37;7.90;;;;;;;18.96;73.63;100920.88;3431195;82;99089;-82
2021/06/10 07:54:33;;;;;;;13.72;6.37;;;;;;;19.06;73.68;100929.67;3432474;84;26464;-84
2021/06/10 07:59:35;;;;;;;10.63;6.03;;;;;;;19.33;73.54;100917.90;3430722;82;99409;-85
2021/06/10 08:04:36;;;;;;;8.58;4.97;;;;;;;19.79;72.74;100919.28;3443869;84;26759;-85
2021/06/10 08:09:37;;;;;;;9.60;3.83;;;;;;;20.42;71.82;100916.63;3440597;82;98431;-86
2021/06/10 08:14:38;;;;;;;9.73;4.63;;;;;;;21.00;68.47;100905.36;3444152;82;26428;-87
2021/06/10 08:19:39;;;;;;;7.43;4.10;;;;;;;21.55;67.45;100908.56;3441922;82;98991;-87
2021/06/10 08:24:40;;;;;;;9.07;3.93;;;;;;;22.48;66.12;100908.59;3502270;82;26543;-87
2021/06/10 08:29:41;;;;;;;6.07;3.80;;;;;;;23.22;63.21;100899.27;3506947;77;98901;-89
2021/06/10 08:34:43;;;;;;;7.70;4.05;;;;;;;24.12;61.44;100901.52;3503182;82;26829;-87
2021/06/10 08:39:44;;;;;;;5.20;3.20;;;;;;;24.93;58.57;100898.58;3491799;80;98926;-88
2021/06/10 08:44:47;;;;;;;5.80;3.42;;;;;;;25.69;58.05;100902.84;3503004;82;26087;-86
2021/06/10 08:49:49;;;;;;;6.12;3.62;;;;;;;26.77;55.74;100903.55;3486662;79;98923;-87
2021/06/10 08:54:50;;;;;;;5.33;2.65;;;;;;;27.63;52.65;100902.45;3507528;82;25944;-88
2021/06/10 08:59:51;;;;;;;3.72;2.35;;;;;;;27.91;52.04;100902.45;3502014;81;98784;-87
2021/06/10 09:04:52;;;;;;;9.20;2.45;;;;;;;28.55;49.65;100908.30;3509236;82;26531;-88
2021/06/10 09:09:54;;;;;;;3.35;2.00;;;;;;;28.81;48.73;100903.57;3504501;80;98754;-88
2021/06/10 09:15:03;;;;;;;2.60;1.90;;;;;;;29.88;47.99;100893.42;3506443;82;26446;-89
2021/06/10 09:20:22;;;;;;;5.40;2.42;;;;;;;30.63;46.16;100893.97;3498713;79;98793;-90
2021/06/10 09:25:24;;;;;;;5.97;2.83;;;;;;;31.50;45.50;100896.67;3498710;81;26306;-88
2021/06/10 09:30:33;;;;;;;6.03;2.85;;;;;;;32.20;42.37;100891.77;3495950;82;98844;-89
2021/06/10 09:35:37;;;;;;;4.47;2.27;;;;;;;32.22;40.98;100892.06;3512194;81;25894;-89
2021/06/10 09:40:39;;;;;;;3.75;2.20;;;;;;;32.85;41.02;100884.63;3490123;80;98899;-90
2021/06/10 09:45:43;;;;;;;4.80;2.33;;;;;;;33.36;40.03;100882.62;3506449;81;25892;-90
2021/06/10 09:50:47;;;;;;;4.33;2.30;;;;;;;33.73;39.46;100872.22;3492952;81;98922;-90
2021/06/10 09:56:01;;;;;;;4.67;2.40;;;;;;;34.11;38.31;100871.27;3500000;82;26034;-91
2021/06/10 10:01:14;;;;;;;4.33;2.55;;;;;;;34.42;36.80;100867.94;3503619;80;98829;-90
2021/06/10 10:06:23;;;;;;;4.55;2.50;;;;;;;34.94;37.73;100859.33;3498035;81;25826;-89
2021/06/10 10:11:26;;;;;;;3.87;2.45;;;;;;;35.25;35.73;100858.75;3490217;80;98871;-85
2021/06/10 10:16:34;;;;;;;6.40;2.70;;;;;;;35.25;36.08;100855.13;3506034;81;25965;-91
2021/06/10 10:21:36;;;;;;;5.30;2.67;;;;;;;35.54;34.63;100845.66;3463713;80;99132;-89
2021/06/10 10:26:40;;;;;;;3.05;2.12;;;;;;;35.80;33.64;100847.30;3437698;83;26261;-84
2021/06/10 10:31:44;;;;;;;5.40;2.52;;;;;;;35.70;32.93;100844.66;3420635;83;98764;-87
2021/06/10 10:36:45;;;;;;;2.15;1.70;;;;;;;35.39;32.71;100840.37;3430080;84;25999;-87
2021/06/10 10:41:49;;;;;;;7.05;2.20;;;;;;;35.50;33.47;100839.45;3428420;83;98815;-86
2021/06/10 10:47:05;;;;;;;7.25;2.60;;;;;;;35.80;32.97;100825.81;3431087;83;26813;-85
2021/06/10 10:52:21;;;;;;;4.42;2.30;;;;;;;35.27;32.36;100826.73;3423527;83;98887;-85
2021/06/10 10:57:38;;;;;;;6.83;2.65;;;;;;;34.80;31.63;100817.59;3437099;83;26231;-86
2021/06/10 11:02:50;;;;;;;4.85;2.52;;;;;;;34.25;31.78;100820.89;3426862;82;98588;-90
2021/06/10 11:07:51;;;;;;;4.33;2.27;;;;;;;33.87;32.59;100826.86;3426167;83;98876;-89
2021/06/10 11:12:54;;;;;;;5.35;2.20;;;;;;;33.47;32.85;100819.79;3442508;83;25932;-89
2021/06/10 11:18:06;;;;;;;6.58;2.30;;;;;;;33.27;32.98;100817.23;3429571;83;98944;-90
2021/06/10 11:23:17;;;;;;;2.62;2.22;;;;;;;33.29;33.24;100809.62;3471025;82;26342;-91
2021/06/10 11:28:21;;;;;;;5.50;2.50;;;;;;;33.74;33.67;100793.81;3494627;82;99079;-90
2021/06/10 11:33:27;;;;;;;4.95;2.65;;;;;;;33.96;32.55;100794.48;3501897;82;25987;-91
2021/06/10 11:38:44;;;;;;;3.90;2.05;;;;;;;33.39;33.25;100783.77;3394257;82;98898;-89
2021/06/10 11:43:55;;;;;;;4.45;2.25;;;;;;;33.48;33.14;100783.44;3499559;81;25950;-86
2021/06/10 11:48:56;;;;;;;3.70;2.17;;;;;;;33.08;32.04;100759.20;3504753;80;98911;-87
2021/06/10 11:54:11;;;;;;;3.05;2.22;;;;;;;32.59;33.67;100765.78;3500615;82;27043;-84
2021/06/10 11:59:27;;;;;;;5.92;2.17;;;;;;;32.48;33.03;100762.95;3501809;82;98843;-86
2021/06/10 12:04:29;;;;;;;3.35;2.20;;;;;;;31.92;33.91;100771.34;3512277;82;25981;-90
2021/06/10 12:09:30;;;;;;;4.50;2.20;;;;;;;31.74;34.59;100761.09;3501057;82;99011;-91
2021/06/10 12:14:38;;;;;;;5.10;2.30;;;;;;;31.94;35.07;100759.45;3503492;82;26484;-86
2021/06/10 12:19:39;;;;;;;3.45;2.10;;;;;;;31.95;34.44;100756.09;3504794;81;98905;-89
2021/06/10 12:24:42;;;;;;;6.15;2.42;;;;;;;31.77;35.00;100750.87;3497866;82;25864;-88
2021/06/10 12:29:50;;;;;;;5.85;3.10;;;;;;;31.45;33.89;100748.70;3476260;81;98375;-88
2021/06/10 12:34:54;;;;;;;4.27;2.70;;;;;;;31.06;34.77;100750.61;3484820;83;26330;-90
2021/06/10 12:39:59;;;;;;;5.40;2.67;;;;;;;30.72;34.86;100745.38;3485130;81;100072;-90
2021/06/10 12:45:00;;;;;;;4.35;2.30;;;;;;;30.56;35.00;100741.77;3491525;83;26598;-89
2021/06/10 12:50:01;;;;;;;4.15;2.22;;;;;;;30.52;36.10;100731.93;3500576;82;98347;-89
2021/06/10 12:55:04;;;;;;;4.58;2.40;;;;;;;30.46;36.17;100730.45;3487850;82;26882;-86
2021/06/10 13:00:12;;;;;;;4.50;2.20;;;;;;;30.44;36.40;100720.25;3494478;80;99034;-89
2021/06/10 13:05:18;;;;;;;3.85;2.45;;;;;;;30.38;37.34;100714.39;3496429;83;26470;-88
2021/06/10 13:10:41;;;;;;;5.20;2.35;;;;;;;30.57;36.74;100714.91;3503740;81;99154;-90
2021/06/10 13:15:47;;;;;;;3.80;2.25;;;;;;;30.66;37.12;100712.53;3496341;82;26537;-90
2021/06/10 13:21:04;;;;;;;3.15;2.22;;;;;;;30.77;36.65;100705.48;3493411;81;99084;-93
2021/06/10 13:26:21;;;;;;;4.58;2.52;;;;;;;31.01;36.21;100698.76;3524348;82;26691;-92
2021/06/10 13:31:38;;;;;;;3.83;2.30;;;;;;;31.25;35.33;100689.16;3521500;82;98786;-86
2021/06/10 13:37:13;;;;;;;4.10;2.60;;;;;;;31.07;35.42;100692.45;3526085;82;26613;-89
2021/06/10 13:41:51;;;;;;;4.37;2.20;;;;;;;31.34;34.29;100678.32;3508990;82;98879;-86
2021/06/10 13:46:53;;;;;;;5.12;2.40;;;;;;;31.41;33.36;100675.62;3568121;80;25899;-86
2021/06/10 13:51:54;;;;;;;5.03;2.95;;;;;;;31.44;32.73;100672.53;3565726;80;98558;-90
2021/06/10 13:56:55;;;;;;;9.13;2.47;;;;;;;31.42;33.38;100666.58;3561621;81;25871;-87
2021/06/10 14:01:56;;;;;;;4.08;2.25;;;;;;;31.70;33.11;100665.17;3557604;80;98850;-90
2021/06/10 14:06:59;;;;;;;6.28;2.42;;;;;;;31.76;33.04;100661.74;3564542;81;25790;-84
2021/06/10 14:12:00;;;;;;;3.15;2.40;;;;;;;31.93;32.83;100667.55;3563782;78;98362;-90
2021/06/10 14:17:01;;;;;;;4.35;2.40;;;;;;;31.94;32.77;100639.20;3568959;81;26517;-86
2021/06/10 14:22:03;;;;;;;3.55;2.30;;;;;;;32.25;32.33;100666.63;3557457;80;99044;-90
2021/06/10 14:27:05;;;;;;;3.30;2.27;;;;;;;31.85;32.55;100654.34;3505734;82;25922;-89
2021/06/10 14:32:19;;;;;;;4.95;2.25;;;;;;;31.80;32.65;100657.97;3497072;81;98721;-89
2021/06/10 14:37:20;;;;;;;;;;;;;;;31.74;32.83;100652.29;3511687;82;26183;-93
2021/06/10 14:42:25;;;;;;;3.60;2.42;;;;;;;31.94;32.63;100642.04;3518031;81;84730;-93
2021/06/10 14:47:29;;;;;;;3.83;2.55;;;;;;;31.89;32.79;100643.48;3497719;81;26034;-93
2021/06/10 14:52:31;;;;;;;5.95;3.40;;;;;;;31.56;33.09;100646.30;3505018;81;98770;-89
2021/06/10 14:57:32;;;;;;;4.42;3.08;;;;;;;31.17;32.40;100641.16;3512170;81;26320;-91
2021/06/10 15:02:33;;;;;;;6.17;2.77;;;;;;;30.92;32.49;100639.27;3504313;81;98570;-91
2021/06/10 15:07:34;;;;;;;4.25;2.60;;;;;;;30.80;32.60;100635.62;3512576;81;26393;-91
2021/06/10 15:12:36;;;;;;;4.05;2.75;;;;;;;30.40;34.07;100633.07;3506648;80;98798;-93
2021/06/10 15:17:38;;;;;;;3.83;2.42;;;;;;;30.34;33.91;100629.42;3502825;82;26540;-91
2021/06/10 15:22:39;;;;;;;3.72;2.58;;;;;;;30.45;34.20;100635.17;3492959;81;98295;-90
2021/06/10 15:27:47;;;;;;;4.78;2.98;;;;;;;30.58;33.72;100621.30;3437503;83;25899;-91
2021/06/10 15:32:53;;;;;;;3.90;2.52;;;;;;;30.48;33.21;100618.54;3416044;83;26377;-90
2021/06/10 15:37:54;;;;;;;4.28;2.60;;;;;;;30.48;33.52;100609.23;3432178;82;98965;-91
2021/06/10 15:42:56;;;;;;;5.17;2.85;;;;;;;30.38;33.43;100607.25;3436317;84;26137;-90
2021/06/10 15:47:56;;;;;;;3.90;2.62;;;;;;;30.10;33.40;100612.00;3439086;83;101422;-92
2021/06/10 15:52:57;;;;;;;4.08;2.75;;;;;;;29.75;34.06;100605.77;3444898;83;25967;-92
2021/06/10 15:57:58;;;;;;;6.67;2.95;;;;;;;29.50;34.25;100600.12;3440563;83;98841;-91
2021/06/10 16:02:59;;;;;;;6.90;2.72;;;;;;;29.33;34.14;100602.82;3437497;84;25976;-89
2021/06/10 16:08:01;;;;;;;5.30;2.33;;;;;;;28.92;33.99;100594.23;3429566;82;98962;-92
2021/06/10 16:13:02;;;;;;;6.22;2.55;;;;;;;28.67;34.92;100585.70;3443818;84;27129;-92
2021/06/10 16:18:03;;;;;;;3.45;2.45;;;;;;;28.49;34.87;100586.01;3449652;82;99460;-94
2021/06/10 16:23:07;;;;;;;4.87;2.35;;;;;;;28.09;35.00;100585.30;3451935;82;26507;-93
2021/06/10 16:28:08;;;;;;;5.57;2.77;;;;;;;27.86;35.08;100577.77;3506732;81;99231;-93
2021/06/10 16:33:09;;;;;;;3.17;2.00;;;;;;;27.73;35.38;100584.34;3513682;82;26724;-91
2021/06/10 16:38:31;;;;;;;3.40;2.00;;;;;;;27.48;34.97;100579.32;3503582;82;98871;-91
2021/06/10 16:43:32;;;;;;;2.27;1.72;;;;;;;27.17;34.85;100569.14;3513610;82;25842;-94
2021/06/10 16:48:33;;;;;;;3.25;1.85;;;;;;;26.91;35.55;100578.64;3507742;81;98910;-93
2021/06/10 16:53:34;;;;;;;2.67;1.80;;;;;;;26.82;36.42;100571.66;3515127;81;25894;-94
2021/06/10 16:58:47;;;;;;;3.05;1.72;;;;;;;26.74;36.28;100567.02;3504120;81;98620;-94
2021/06/10 17:04:12;;;;;;;3.65;1.50;;;;;;;26.59;36.70;100571.84;3507206;82;26108;-94
2021/06/10 17:09:21;;;;;;;3.15;1.80;;;;;;;26.37;37.46;100568.53;3511181;81;99097;-94
2021/06/10 17:14:26;;;;;;;2.83;1.62;;;;;;;26.11;37.24;100573.73;3510816;82;26793;-93
2021/06/10 17:19:26;;;;;;;2.90;1.47;;;;;;;25.86;36.79;100582.61;3508446;81;98839;-93
2021/06/10 17:24:27;;;;;;;3.77;1.47;;;;;;;25.70;37.15;100580.97;3513713;82;26111;-94
2021/06/10 17:29:28;;;;;;;2.10;1.27;;;;;;;25.56;37.69;100579.46;3483009;80;98986;-94
2021/06/10 17:34:29;;;;;;;3.55;1.67;;;;;;;25.40;38.45;100584.81;3509506;82;26452;-94
2021/06/10 17:39:30;;;;;;;2.83;1.40;;;;;;;25.27;38.97;100590.48;3506583;81;98614;-94
2021/06/10 17:44:31;;;;;;;4.05;1.55;;;;;;;25.09;39.38;100582.84;3511605;81;26509;-94
2021/06/10 17:49:32;;;;;;;3.35;1.50;;;;;;;24.92;39.77;100579.42;3500609;81;98875;-94
2021/06/10 17:54:33;;;;;;;2.83;1.80;;;;;;;24.74;40.81;100578.03;3506567;82;26528;-93
2021/06/10 17:59:33;;;;;;;2.27;1.42;;;;;;;24.55;41.08;100581.44;3494492;82;98818;-93
2021/06/10 18:04:34;;;;;;;4.37;1.50;;;;;;;24.42;41.59;100587.82;3506513;81;32763;-94
2021/06/10 18:09:35;;;;;;;8.75;1.92;;;;;;;24.27;41.90;100594.53;3505408;81;99139;-93
2021/06/10 18:14:36;;;;;;;4.05;2.00;;;;;;;24.21;42.67;100592.17;3516688;81;31414;-93
2021/06/10 18:19:37;;;;;;;5.17;1.90;;;;;;;24.05;42.94;100595.27;3505109;81;98952;-93
2021/06/10 18:24:37;;;;;;;3.67;1.62;;;;;;;23.92;43.31;100599.59;3521027;81;33368;-93
2021/06/10 18:29:38;;;;;;;5.25;1.77;;;;;;;23.78;43.91;100605.77;3557091;81;98833;-92
2021/06/10 18:34:39;;;;;;;3.80;2.00;;;;;;;23.62;44.72;100596.78;3566018;81;26628;-93
2021/06/10 18:39:40;;;;;;;5.12;1.85;;;;;;;23.39;45.54;100597.30;3561886;78;98876;-93
2021/06/10 18:44:41;;;;;;;5.78;2.30;;;;;;;23.16;46.41;100597.13;3569954;81;32082;-92
2021/06/10 18:49:44;;;;;;;3.85;1.95;;;;;;;22.71;47.99;100594.59;3562928;80;98792;-93
2021/06/10 18:54:45;;;;;;;5.90;2.35;;;;;;;22.71;47.99;100594.59;3572407;81;31760;-93
2021/06/10 18:59:49;;;;;;;5.15;1.92;;;;;;;22.45;48.63;100597.35;3563476;80;98805;-93
2021/06/10 19:04:51;;;;;;;5.87;2.35;;;;;;;22.19;49.21;100604.98;3565966;81;31746;-92
2021/06/10 19:09:51;;;;;;;6.92;2.05;;;;;;;21.95;49.69;100608.00;3549173;81;98548;-89
2021/06/10 19:14:56;;;;;;;7.50;2.60;;;;;;;21.74;50.46;100605.11;3557909;81;31708;-90
2021/06/10 19:19:57;;;;;;;5.10;2.70;;;;;;;21.55;50.92;100611.66;3557637;80;98561;-90
2021/06/10 19:24:59;;;;;;;8.23;3.35;;;;;;;21.33;51.83;100612.94;3546959;81;31765;-90
2021/06/10 19:30:01;;;;;;;9.95;5.12;;;;;;;21.12;52.37;100620.56;3500455;80;98961;-91
2021/06/10 19:35:06;;;;;;;13.38;5.65;;;;;;;20.89;52.83;100615.83;3503638;82;31746;-92
2021/06/10 19:40:10;;;;;;;10.80;6.15;;;;;;;20.64;53.42;100631.06;3501418;81;99166;-92
2021/06/10 19:45:12;;;;;;;9.45;5.03;;;;;;;20.43;54.11;100628.85;3504145;82;31877;-91
2021/06/10 19:50:13;;;;;;;9.88;4.67;;;;;;;20.25;54.48;100632.09;3503175;79;98476;-90
2021/06/10 19:55:15;;;;;;;8.08;4.42;;;;;;;20.08;55.15;100633.91;3510032;82;31632;-90
2021/06/10 20:00:16;;;;;;;7.95;3.87;;;;;;;19.90;55.27;100634.30;3506727;81;99347;-90
2021/06/10 20:05:18;;;;;;;12.15;4.42;;;;;;;19.74;55.54;100639.09;3514233;82;31125;-91
2021/06/10 20:10:20;;;;;;;7.40;4.47;;;;;;;19.54;56.08;100643.33;3502426;81;98765;-92
2021/06/10 20:15:21;;;;;;;8.13;4.25;;;;;;;19.39;56.70;100651.02;3513577;82;31682;-92
2021/06/10 20:20:24;;;;;;;6.87;3.92;;;;;;;19.28;56.88;100650.45;3507457;81;98846;-92
2021/06/10 20:25:25;;;;;;;9.00;3.90;;;;;;;19.18;56.53;100643.86;3476005;82;32317;-90
2021/06/10 20:30:33;;;;;;;5.95;3.12;;;;;;;19.11;57.05;100643.20;3499843;81;98624;-91
2021/06/10 20:35:30;;;;;;;6.40;3.35;;;;;;;19.03;57.28;100650.16;3510518;82;32261;-91
2021/06/10 20:40:32;;;;;;;9.40;3.35;;;;;;;18.97;57.54;100650.48;3501339;80;98551;-90
2021/06/10 20:45:35;;;;;;;5.08;2.77;;;;;;;18.93;58.15;100653.94;3501734;82;32188;-91
2021/06/10 20:50:39;;;;;;;5.95;3.27;;;;;;;18.91;58.11;100656.38;3504909;82;98569;-91
2021/06/10 20:55:40;;;;;;;6.85;3.33;;;;;;;18.89;58.14;100653.21;3505514;82;32348;-90
2021/06/10 21:00:41;;;;;;;10.68;3.47;;;;;;;18.86;58.49;100656.88;3502661;81;98966;-90
2021/06/10 21:05:42;;;;;;;6.05;3.22;;;;;;;18.80;58.31;100661.38;3507683;81;29385;-91
2021/06/10 21:10:43;;;;;;;6.62;3.17;;;;;;;18.74;58.40;100670.05;3498808;80;99124;-91
2021/06/10 21:15:44;;;;;;;5.20;2.72;;;;;;;18.68;58.41;100677.30;3509000;82;32437;-91
2021/06/10 21:20:45;;;;;;;5.20;2.80;;;;;;;18.60;58.38;100676.67;3507305;82;98826;-91
2021/06/10 21:25:46;;;;;;;4.35;2.60;;;;;;;18.56;58.42;100677.33;3516515;82;27491;-91
2021/06/10 21:30:47;;;;;;;6.12;2.95;;;;;;;18.49;58.35;100673.87;3503878;82;98858;-91
2021/06/10 21:35:49;;;;;;;6.53;2.85;;;;;;;18.39;58.53;100669.27;3512364;82;27932;-91
2021/06/10 21:41:00;;;;;;;8.33;2.83;;;;;;;18.29;58.53;100672.38;3505211;81;98890;-93
2021/06/10 21:46:01;;;;;;;8.13;2.83;;;;;;;18.20;58.43;100662.38;3527165;82;25902;-92
2021/06/10 21:51:03;;;;;;;6.17;2.58;;;;;;;18.11;58.86;100658.55;3528681;81;98367;-93
2021/06/10 21:56:10;;;;;;;4.77;2.33;;;;;;;17.99;59.34;100662.70;3494909;82;30117;-92
2021/06/10 22:01:13;;;;;;;6.42;2.85;;;;;;;17.86;59.65;100666.48;3490766;81;98482;-92
2021/06/10 22:06:14;;;;;;;5.10;2.50;;;;;;;17.73;60.06;100671.06;3512840;82;30937;-93
2021/06/10 22:11:17;;;;;;;7.17;2.70;;;;;;;17.61;60.57;100661.89;3463199;82;98822;-93
2021/06/10 22:16:19;;;;;;;4.87;2.87;;;;;;;17.49;61.25;100656.89;3486005;82;31705;-93
2021/06/10 22:21:20;;;;;;;6.45;2.92;;;;;;;17.34;61.55;100654.07;3509153;82;98291;-93
2021/06/10 22:26:21;;;;;;;6.97;2.70;;;;;;;17.24;62.13;100658.57;3516556;81;30401;-93
2021/06/10 22:31:23;;;;;;;5.90;2.70;;;;;;;17.14;62.73;100655.91;3502065;80;98770;-92
2021/06/10 22:36:24;;;;;;;7.13;2.83;;;;;;;17.04;63.16;100648.47;3508353;82;32108;-93
2021/06/10 22:41:25;;;;;;;4.67;2.60;;;;;;;16.96;63.63;100654.70;3497635;80;99230;-93
2021/06/10 22:46:26;;;;;;;6.20;3.17;;;;;;;16.87;64.39;100651.65;3496900;81;27504;-93
2021/06/10 22:51:27;;;;;;;7.60;2.92;;;;;;;16.81;64.08;100652.51;3510270;79;98787;-93
2021/06/10 22:56:28;;;;;;;5.13;2.87;;;;;;;16.75;64.70;100653.57;3508565;82;27632;-93
2021/06/10 23:01:29;;;;;;;7.17;3.37;;;;;;;16.70;65.24;100647.07;3500263;80;98714;-92
2021/06/10 23:06:30;;;;;;;5.35;2.35;;;;;;;16.66;65.46;100646.31;3507037;82;27450;-93
2021/06/10 23:11:31;;;;;;;5.42;3.02;;;;;;;16.63;65.20;100644.96;3475780;82;98594;-93
2021/06/10 23:16:32;;;;;;;5.03;2.90;;;;;;;16.60;65.37;100643.80;3506783;82;26375;-93
2021/06/10 23:21:33;;;;;;;8.60;4.07;;;;;;;16.53;64.89;100631.95;3493774;82;98341;-93
2021/06/10 23:26:34;;;;;;;6.80;3.25;;;;;;;16.52;64.51;100642.89;3512602;82;34972;-92
2021/06/10 23:31:35;;;;;;;5.75;2.98;;;;;;;16.50;64.29;100637.73;3499196;79;98468;-93